createdAt,value
2018-06-16T00:01:25.459Z,51.90
2018-06-16T00:03:53.809Z,52.61
2018-06-16T00:06:22.061Z,52.98
2018-06-16T00:08:50.358Z,52.98
2018-06-16T00:11:18.605Z,53.20
2018-06-16T00:13:46.943Z,53.44
2018-06-16T00:16:15.188Z,53.55
2018-06-16T00:18:43.467Z,54.22
2018-06-16T00:21:11.697Z,53.73
2018-06-16T00:23:40.429Z,53.95
2018-06-16T00:26:08.662Z,54.01
2018-06-16T00:28:36.908Z,54.59
2018-06-16T00:31:05.184Z,54.76
2018-06-16T00:33:33.461Z,54.23
2018-06-16T00:36:01.749Z,54.29
2018-06-16T00:38:29.993Z,54.62
2018-06-16T00:40:58.260Z,53.90
2018-06-16T00:43:26.701Z,54.17
2018-06-16T00:45:54.968Z,54.33
2018-06-16T00:48:23.222Z,54.12
2018-06-16T00:50:51.499Z,54.70
2018-06-16T00:53:19.729Z,54.59
2018-06-16T00:55:48.018Z,55.30
2018-06-16T00:58:16.264Z,55.20
2018-06-16T01:00:44.539Z,53.78
2018-06-16T01:03:13.429Z,54.74
2018-06-16T01:05:41.689Z,53.94
2018-06-16T01:08:09.940Z,54.09
2018-06-16T01:10:38.217Z,54.18
2018-06-16T01:13:06.469Z,54.35
2018-06-16T01:15:34.709Z,55.28
2018-06-16T01:18:02.969Z,55.14
2018-06-16T01:20:31.245Z,54.70
2018-06-16T01:22:59.510Z,53.57
2018-06-16T01:25:27.773Z,55.15
2018-06-16T01:27:56.065Z,54.45
2018-06-16T01:30:24.305Z,54.07
2018-06-16T01:32:52.593Z,54.04
2018-06-16T01:35:20.836Z,53.53
2018-06-16T01:37:49.093Z,53.30
2018-06-16T01:40:17.339Z,53.33
2018-06-16T01:42:45.607Z,53.34
2018-06-16T01:45:13.841Z,53.17
2018-06-16T01:47:42.112Z,53.33
2018-06-16T01:50:10.361Z,52.32
2018-06-16T01:52:38.633Z,53.68
2018-06-16T01:55:06.869Z,53.14
2018-06-16T01:57:35.122Z,53.64
2018-06-16T02:00:03.392Z,53.25
2018-06-16T02:02:31.633Z,53.87
2018-06-16T02:04:59.905Z,55.94
2018-06-16T02:07:28.146Z,54.63
2018-06-16T02:09:56.413Z,54.93
2018-06-16T02:12:24.741Z,53.12
2018-06-16T02:14:53.030Z,54.56
2018-06-16T02:17:21.282Z,54.54
2018-06-16T02:19:49.544Z,54.31
2018-06-16T02:22:17.777Z,55.82
2018-06-16T02:24:46.038Z,57.70
2018-06-16T02:27:14.277Z,59.33
2018-06-16T02:29:42.605Z,58.19
2018-06-16T02:32:10.852Z,58.71
2018-06-16T02:34:39.150Z,59.77
2018-06-16T02:37:07.414Z,60.50
2018-06-16T02:39:35.703Z,60.04
2018-06-16T02:42:03.937Z,60.89
2018-06-16T02:44:32.215Z,60.83
2018-06-16T02:47:00.457Z,61.49
2018-06-16T02:49:28.697Z,62.40
2018-06-16T02:51:56.963Z,62.30
2018-06-16T02:54:25.207Z,63.53
2018-06-16T02:56:53.480Z,63.47
2018-06-16T02:59:21.732Z,62.73
2018-06-16T03:01:50.017Z,63.23
2018-06-16T03:04:18.273Z,63.46
2018-06-16T03:06:46.548Z,63.30
2018-06-16T03:09:14.801Z,63.02
2018-06-16T03:11:43.082Z,62.89
2018-06-16T03:14:11.372Z,62.41
2018-06-16T03:16:39.676Z,62.33
2018-06-16T03:19:07.925Z,61.54
2018-06-16T03:21:36.205Z,60.81
2018-06-16T03:24:04.464Z,61.09
2018-06-16T03:26:32.733Z,60.43
2018-06-16T03:29:00.982Z,60.50
2018-06-16T03:31:29.265Z,59.60
2018-06-16T03:33:57.541Z,58.66
2018-06-16T03:36:25.895Z,57.91
2018-06-16T03:38:54.141Z,58.54
2018-06-16T03:41:22.421Z,58.95
2018-06-16T03:43:50.785Z,59.85
2018-06-16T03:46:19.041Z,58.74
2018-06-16T03:48:47.366Z,58.15
2018-06-16T03:51:15.597Z,58.84
2018-06-16T03:53:43.887Z,58.21
2018-06-16T03:56:12.137Z,57.81
2018-06-16T03:58:40.433Z,57.34
2018-06-16T04:01:08.696Z,56.80
2018-06-16T04:03:36.968Z,57.17
2018-06-16T04:06:05.357Z,56.17
2018-06-16T04:08:33.646Z,54.97
2018-06-16T04:11:02.006Z,55.53
2018-06-16T04:13:30.301Z,55.91
2018-06-16T04:15:58.559Z,55.52
2018-06-16T04:18:26.829Z,56.43
2018-06-16T04:20:55.077Z,55.48
2018-06-16T04:23:23.363Z,55.46
2018-06-16T04:25:51.716Z,55.14
2018-06-16T04:28:19.960Z,55.02
2018-06-16T04:30:48.220Z,54.78
2018-06-16T04:33:16.538Z,54.38
2018-06-16T04:35:44.782Z,54.70
2018-06-16T04:38:13.041Z,54.90
2018-06-16T04:40:41.317Z,54.46
2018-06-16T04:43:09.560Z,54.10
2018-06-16T04:45:37.919Z,53.72
2018-06-16T04:48:06.257Z,53.72
2018-06-16T04:50:34.653Z,54.43
2018-06-16T04:53:02.906Z,53.96
2018-06-16T04:55:31.210Z,53.54
2018-06-16T04:57:59.485Z,53.22
2018-06-16T05:00:27.766Z,53.86
2018-06-16T05:02:56.024Z,53.24
2018-06-16T05:05:24.322Z,53.00
2018-06-16T05:07:52.581Z,52.65
2018-06-16T05:10:20.848Z,52.09
2018-06-16T05:12:49.120Z,51.88
2018-06-16T05:15:17.421Z,52.22
2018-06-16T05:17:45.720Z,52.39
2018-06-16T05:20:13.982Z,52.63
2018-06-16T05:22:42.349Z,52.59
2018-06-16T05:25:10.725Z,51.72
2018-06-16T05:27:39.140Z,51.65
2018-06-16T05:30:07.405Z,51.88
2018-06-16T05:32:35.890Z,51.46
2018-06-16T05:35:04.169Z,50.44
2018-06-16T05:37:32.469Z,50.33
2018-06-16T05:40:00.728Z,49.08
2018-06-16T05:42:29.183Z,48.33
2018-06-16T05:44:58.433Z,49.56
2018-06-16T05:47:26.761Z,49.27
2018-06-16T05:49:55.049Z,50.07
2018-06-16T05:52:23.333Z,49.94
2018-06-16T05:54:51.593Z,50.77
2018-06-16T05:57:19.893Z,50.11
2018-06-16T05:59:48.149Z,50.31
2018-06-16T06:02:16.471Z,49.11
2018-06-16T06:04:44.788Z,49.79
2018-06-16T06:07:13.280Z,50.59
2018-06-16T06:09:41.577Z,49.77
2018-06-16T06:12:09.901Z,50.39
2018-06-16T06:14:38.189Z,50.30
2018-06-16T06:17:06.440Z,49.73
2018-06-16T06:19:34.741Z,50.54
2018-06-16T06:22:03.057Z,49.95
2018-06-16T06:24:31.648Z,49.60
2018-06-16T06:26:59.973Z,48.89
2018-06-16T06:29:28.245Z,48.93
2018-06-16T06:31:56.519Z,49.55
2018-06-16T06:34:24.824Z,49.12
2018-06-16T06:36:53.077Z,49.18
2018-06-16T06:39:21.357Z,50.27
2018-06-16T06:41:49.604Z,48.96
2018-06-16T06:44:17.897Z,49.46
2018-06-16T06:46:46.157Z,50.22
2018-06-16T06:49:14.485Z,49.92
2018-06-16T06:51:42.878Z,49.65
2018-06-16T06:54:11.109Z,49.40
2018-06-16T06:56:39.401Z,49.72
2018-06-16T06:59:07.653Z,50.26
2018-06-16T07:01:35.953Z,49.10
2018-06-16T07:04:04.307Z,49.73
2018-06-16T07:06:32.596Z,50.26
2018-06-16T07:09:00.868Z,50.98
2018-06-16T07:11:29.152Z,51.12
2018-06-16T07:13:57.433Z,51.23
2018-06-16T07:16:25.796Z,51.59
2018-06-16T07:18:54.045Z,51.72
2018-06-16T07:21:22.337Z,52.61
2018-06-16T07:23:50.598Z,52.49
2018-06-16T07:26:18.880Z,53.60
2018-06-16T07:28:47.140Z,53.58
2018-06-16T07:31:15.435Z,54.02
2018-06-16T07:33:43.850Z,54.33
2018-06-16T07:36:12.178Z,54.67
2018-06-16T07:38:40.474Z,53.90
2018-06-16T07:41:08.778Z,53.62
2018-06-16T07:43:37.385Z,52.43
2018-06-16T07:46:05.957Z,51.83
2018-06-16T07:48:34.341Z,50.84
2018-06-16T07:51:02.641Z,48.43
2018-06-16T07:53:30.923Z,46.50
2018-06-16T07:55:59.173Z,46.70
2018-06-16T07:58:27.457Z,47.00
2018-06-16T08:00:55.709Z,48.04
2018-06-16T08:03:23.989Z,47.88
2018-06-16T08:05:52.242Z,47.41
2018-06-16T08:08:20.537Z,45.64
2018-06-16T08:10:48.794Z,46.04
2018-06-16T08:13:17.065Z,45.28
2018-06-16T08:15:45.326Z,45.63
2018-06-16T08:18:13.630Z,46.06
2018-06-16T08:20:41.881Z,44.92
2018-06-16T08:23:10.201Z,44.70
2018-06-16T08:25:38.459Z,43.92
2018-06-16T08:28:06.700Z,43.67
2018-06-16T08:30:35.017Z,44.30
2018-06-16T08:33:03.334Z,43.30
2018-06-16T08:35:31.613Z,43.14
2018-06-16T08:37:59.921Z,44.09
2018-06-16T08:40:28.209Z,43.82
2018-06-16T08:42:56.473Z,43.12
2018-06-16T08:45:24.772Z,40.79
2018-06-16T08:47:53.020Z,39.03
2018-06-16T08:50:21.313Z,38.57
2018-06-16T08:52:49.686Z,40.50
2018-06-16T08:55:18.236Z,42.03
2018-06-16T08:57:46.556Z,40.75
2018-06-16T09:00:14.845Z,39.62
2018-06-16T09:02:43.098Z,38.93
2018-06-16T09:05:11.417Z,40.05
2018-06-16T09:07:39.677Z,40.48
2018-06-16T09:10:07.977Z,39.21
2018-06-16T09:12:36.293Z,39.32
2018-06-16T09:15:04.669Z,39.48
2018-06-16T09:17:32.983Z,41.22
2018-06-16T09:20:01.251Z,42.32
2018-06-16T09:22:29.559Z,41.48
2018-06-16T09:24:58.034Z,40.32
2018-06-16T09:27:26.358Z,39.98
2018-06-16T09:29:54.633Z,40.75
2018-06-16T09:32:22.915Z,40.78
2018-06-16T09:34:51.194Z,41.71
2018-06-16T09:37:19.474Z,42.94
2018-06-16T09:39:47.738Z,42.16
2018-06-16T09:42:16.021Z,41.84
2018-06-16T09:44:44.290Z,43.50
2018-06-16T09:47:12.578Z,42.51
2018-06-16T09:49:40.845Z,41.56
2018-06-16T09:52:09.133Z,42.57
2018-06-16T09:54:37.400Z,42.62
2018-06-16T09:57:05.704Z,41.53
2018-06-16T09:59:33.957Z,41.19
2018-06-16T10:02:02.218Z,42.27
2018-06-16T10:04:30.538Z,41.77
2018-06-16T10:06:58.889Z,41.10
2018-06-16T10:10:30.136Z,40.67
2018-06-16T10:12:58.429Z,40.01
2018-06-16T10:15:26.697Z,40.25
2018-06-16T10:17:54.957Z,40.23
2018-06-16T10:20:23.336Z,39.59
2018-06-16T10:22:51.689Z,39.99
2018-06-16T10:25:20.007Z,38.49
2018-06-16T10:27:48.382Z,37.26
2018-06-16T10:30:16.665Z,38.24
2018-06-16T10:32:45.030Z,37.92
2018-06-16T10:35:13.329Z,38.72
2018-06-16T10:37:41.598Z,37.81
2018-06-16T10:40:09.941Z,37.61
2018-06-16T10:42:38.396Z,38.75
2018-06-16T10:45:06.729Z,39.25
2018-06-16T10:47:35.115Z,40.61
2018-06-16T10:50:03.482Z,43.08
2018-06-16T10:52:31.745Z,44.17
2018-06-16T10:55:00.070Z,44.52
2018-06-16T10:57:28.364Z,44.68
2018-06-16T10:59:56.933Z,45.11
2018-06-16T11:02:25.206Z,45.55
2018-06-16T11:04:53.539Z,46.15
2018-06-16T11:07:21.841Z,47.77
2018-06-16T11:09:50.098Z,48.30
2018-06-16T11:12:18.514Z,50.94
2018-06-16T11:14:46.797Z,53.98
2018-06-16T11:17:15.230Z,55.97
2018-06-16T11:19:43.537Z,57.38
2018-06-16T11:22:11.834Z,56.25
2018-06-16T11:24:40.122Z,59.13
2018-06-16T11:27:08.421Z,59.75
2018-06-16T11:29:36.699Z,60.49
2018-06-16T11:32:05.241Z,62.06
2018-06-16T11:34:33.542Z,63.28
2018-06-16T11:37:01.823Z,63.72
2018-06-16T11:39:30.116Z,64.43
2018-06-16T11:41:58.393Z,64.18
2018-06-16T11:44:26.853Z,64.42
2018-06-16T11:46:55.141Z,61.94
2018-06-16T11:49:23.716Z,60.94
2018-06-16T11:51:52.022Z,61.69
2018-06-16T11:54:20.341Z,62.07
2018-06-16T11:56:48.617Z,61.88
2018-06-16T11:59:17.126Z,59.86
2018-06-16T12:01:45.477Z,58.51
2018-06-16T12:04:13.777Z,56.57
2018-06-16T12:06:42.061Z,55.89
2018-06-16T12:09:12.177Z,55.92
2018-06-16T12:11:40.481Z,55.38
2018-06-16T12:14:09.537Z,55.21
2018-06-16T12:16:38.101Z,54.80
2018-06-16T12:19:06.705Z,54.30
2018-06-16T12:21:35.030Z,54.89
2018-06-16T12:24:03.359Z,53.56
2018-06-16T12:26:31.706Z,51.67
2018-06-16T12:29:00.105Z,50.24
2018-06-16T12:31:28.370Z,51.12
2018-06-16T12:33:56.786Z,50.79
2018-06-16T12:36:25.074Z,52.44
2018-06-16T12:38:53.340Z,52.22
2018-06-16T12:41:21.797Z,52.30
2018-06-16T12:43:50.357Z,51.13
2018-06-16T12:46:18.669Z,51.03
2018-06-16T12:48:46.993Z,52.14
2018-06-16T12:51:15.310Z,52.46
2018-06-16T12:53:43.574Z,52.54
2018-06-16T12:56:11.979Z,51.55
2018-06-16T12:58:40.278Z,51.04
2018-06-16T13:01:08.594Z,50.40
2018-06-16T13:03:36.864Z,51.34
2018-06-16T13:06:05.153Z,50.54
2018-06-16T13:08:33.428Z,52.04
2018-06-16T13:11:01.681Z,51.77
2018-06-16T13:13:30.200Z,50.52
2018-06-16T13:15:58.469Z,50.60
2018-06-16T13:18:26.821Z,48.37
2018-06-16T13:20:55.071Z,48.05
2018-06-16T13:23:23.356Z,46.46
2018-06-16T13:25:51.612Z,47.92
2018-06-16T13:28:19.925Z,46.36
2018-06-16T13:30:48.186Z,46.18
2018-06-16T13:33:16.469Z,45.31
2018-06-16T13:35:44.785Z,44.15
2018-06-16T13:38:13.081Z,44.41
2018-06-16T13:40:41.333Z,43.90
2018-06-16T13:43:09.605Z,42.50
2018-06-16T13:45:37.866Z,42.93
2018-06-16T13:48:06.206Z,43.86
2018-06-16T13:50:34.609Z,43.52
2018-06-16T13:53:02.861Z,44.73
2018-06-16T13:55:31.191Z,44.49
2018-06-16T13:57:59.485Z,44.04
2018-06-16T14:00:27.756Z,44.73
2018-06-16T14:02:56.007Z,44.45
2018-06-16T14:05:24.301Z,43.91
2018-06-16T14:07:52.595Z,43.49
2018-06-16T14:10:20.968Z,42.88
2018-06-16T14:12:49.409Z,40.56
2018-06-16T14:15:17.686Z,39.41
2018-06-16T14:17:45.950Z,32.11
2018-06-16T14:20:14.233Z,29.18
2018-06-16T14:22:42.579Z,28.88
2018-06-16T14:25:10.862Z,26.73
2018-06-16T14:27:39.115Z,25.81
2018-06-16T14:30:07.541Z,24.28
2018-06-16T14:32:35.898Z,24.28
2018-06-16T14:35:04.281Z,26.70
2018-06-16T14:37:32.732Z,25.07
2018-06-16T14:40:01.009Z,25.27
2018-06-16T14:42:29.298Z,24.21
2018-06-16T14:44:57.568Z,25.38
2018-06-16T14:47:25.891Z,26.13
2018-06-16T14:49:54.221Z,27.63
2018-06-16T14:52:22.521Z,24.42
2018-06-16T14:54:50.765Z,23.00
2018-06-16T14:57:19.053Z,20.93
2018-06-16T14:59:47.309Z,21.84
2018-06-16T15:02:15.774Z,21.62
2018-06-16T15:04:44.096Z,25.03
2018-06-16T15:07:12.305Z,23.36
2018-06-16T15:09:40.557Z,23.10
2018-06-16T15:12:08.838Z,22.81
2018-06-16T15:14:37.101Z,20.85
2018-06-16T15:17:05.384Z,17.82
2018-06-16T15:19:33.790Z,18.34
2018-06-16T15:22:02.342Z,22.31
2018-06-16T15:24:30.600Z,26.74
2018-06-16T15:26:58.856Z,30.54
2018-06-16T15:29:27.173Z,34.33
2018-06-16T15:31:55.430Z,36.56
2018-06-16T15:34:23.741Z,38.03
2018-06-16T15:36:52.013Z,38.09
2018-06-16T15:39:20.301Z,39.11
2018-06-16T15:41:48.561Z,41.85
2018-06-16T15:44:16.941Z,47.64
2018-06-16T15:46:45.257Z,51.48
2018-06-16T15:49:13.501Z,55.75
2018-06-16T15:51:42.611Z,57.17
2018-06-16T15:54:10.958Z,60.25
2018-06-16T15:56:39.213Z,64.19
2018-06-16T15:59:07.509Z,66.23
2018-06-16T16:01:35.770Z,65.87
2018-06-16T16:04:04.097Z,66.50
2018-06-16T16:06:32.442Z,67.58
2018-06-16T16:09:00.738Z,67.31
2018-06-16T16:11:29.020Z,67.92
2018-06-16T16:13:57.353Z,66.43
2018-06-16T16:16:25.668Z,66.68
2018-06-16T16:18:54.001Z,66.69
2018-06-16T16:21:22.305Z,65.63
2018-06-16T16:23:50.573Z,64.42
2018-06-16T16:26:18.853Z,62.89
2018-06-16T16:28:47.108Z,62.35
2018-06-16T16:31:15.388Z,60.11
2018-06-16T16:33:43.768Z,59.53
2018-06-16T16:36:12.081Z,55.52
2018-06-16T16:38:40.421Z,44.21
2018-06-16T16:41:08.708Z,41.96
2018-06-16T16:43:36.961Z,42.77
2018-06-16T16:46:05.260Z,40.79
2018-06-16T16:48:33.520Z,43.20
2018-06-16T16:51:01.804Z,43.01
2018-06-16T16:53:30.057Z,46.13
2018-06-16T16:55:58.374Z,48.28
2018-06-16T16:58:26.724Z,48.90
2018-06-16T17:00:55.033Z,48.12
2018-06-16T17:03:23.321Z,50.48
2018-06-16T17:05:51.652Z,46.19
2018-06-16T17:08:19.934Z,44.09
2018-06-16T17:10:48.189Z,41.11
2018-06-16T17:13:16.460Z,43.53
2018-06-16T17:15:44.723Z,46.36
2018-06-16T17:18:13.010Z,46.55
2018-06-16T17:20:41.315Z,49.48
2018-06-16T17:23:09.590Z,49.29
2018-06-16T17:25:37.869Z,49.69
2018-06-16T17:28:06.177Z,50.35
2018-06-16T17:30:34.433Z,49.69
2018-06-16T17:33:02.709Z,50.46
2018-06-16T17:35:30.993Z,44.92
2018-06-16T17:37:59.301Z,43.99
2018-06-16T17:40:27.589Z,40.26
2018-06-16T17:42:55.877Z,40.88
2018-06-16T17:45:24.129Z,47.64
2018-06-16T17:47:52.400Z,49.76
2018-06-16T17:50:20.709Z,53.16
2018-06-16T17:52:49.003Z,54.30
2018-06-16T17:55:17.289Z,55.94
2018-06-16T17:57:45.801Z,57.27
2018-06-16T18:00:14.168Z,60.09
2018-06-16T18:02:42.441Z,60.19
2018-06-16T18:05:10.725Z,60.33
2018-06-16T18:07:38.994Z,60.78
2018-06-16T18:10:07.417Z,60.58
2018-06-16T18:12:35.669Z,61.25
2018-06-16T18:15:04.006Z,61.47
2018-06-16T18:17:32.257Z,62.56
2018-06-16T18:20:00.586Z,61.17
2018-06-16T18:22:28.835Z,61.55
2018-06-16T18:24:57.137Z,62.26
2018-06-16T18:27:25.389Z,62.30
2018-06-16T18:29:53.682Z,62.88
2018-06-16T18:32:21.929Z,64.04
2018-06-16T18:34:50.244Z,64.57
2018-06-16T18:37:18.513Z,64.15
2018-06-16T18:39:46.905Z,64.35
2018-06-16T18:42:15.157Z,65.36
2018-06-16T18:44:43.417Z,64.98
2018-06-16T18:47:11.725Z,65.16
2018-06-16T18:49:40.083Z,64.92
2018-06-16T18:52:08.388Z,65.28
2018-06-16T18:54:36.642Z,65.33
2018-06-16T18:57:05.022Z,65.78
2018-06-16T18:59:33.297Z,66.18
2018-06-16T19:02:01.585Z,67.04
2018-06-16T19:04:29.844Z,66.63
2018-06-16T19:06:58.129Z,67.37
2018-06-16T19:09:26.381Z,66.84
2018-06-16T19:11:54.673Z,67.51
2018-06-16T19:14:22.925Z,67.70
2018-06-16T19:16:51.206Z,68.76
2018-06-16T19:19:19.453Z,69.37
2018-06-16T19:21:47.733Z,68.85
2018-06-16T19:24:15.989Z,69.29
2018-06-16T19:26:44.285Z,69.02
2018-06-16T19:29:12.712Z,69.84
2018-06-16T19:31:41.021Z,70.78
2018-06-16T19:34:09.617Z,70.20
2018-06-16T19:36:37.925Z,71.00
2018-06-16T19:39:09.333Z,71.06
2018-06-16T19:41:38.011Z,71.98
2018-06-16T19:44:06.501Z,72.74
2018-06-16T19:46:34.853Z,73.83
2018-06-16T19:49:03.257Z,73.96
2018-06-16T19:51:31.526Z,74.57
2018-06-16T19:53:59.801Z,75.10
2018-06-16T19:56:28.065Z,74.90
2018-06-16T19:58:56.773Z,74.84
2018-06-16T20:01:25.225Z,75.32
2018-06-16T20:03:53.504Z,75.53
2018-06-16T20:06:21.841Z,75.78
2018-06-16T20:08:50.134Z,76.39
2018-06-16T20:11:18.745Z,76.42
2018-06-16T20:13:47.022Z,77.51
2018-06-16T20:16:15.394Z,77.90
2018-06-16T20:18:43.645Z,78.22
2018-06-16T20:21:11.937Z,78.79
2018-06-16T20:23:40.240Z,79.31
2018-06-16T20:26:08.837Z,79.83
2018-06-16T20:28:37.275Z,79.68
2018-06-16T20:31:05.577Z,80.55
2018-06-16T20:33:33.842Z,80.71
2018-06-16T20:36:02.242Z,81.57
2018-06-16T20:38:30.501Z,81.87
2018-06-16T20:40:58.955Z,82.11
2018-06-16T20:43:27.222Z,82.45
2018-06-16T20:45:55.528Z,82.68
2018-06-16T20:48:24.001Z,82.85
2018-06-16T20:50:52.296Z,83.55
2018-06-16T20:53:20.563Z,83.41
2018-06-16T20:55:48.921Z,83.59
2018-06-16T20:58:17.411Z,84.02
2018-06-16T21:00:45.933Z,84.26
2018-06-16T21:03:14.192Z,84.26
2018-06-16T21:05:42.933Z,84.76
2018-06-16T21:08:11.197Z,84.83
2018-06-16T21:10:39.473Z,85.16
2018-06-16T21:13:08.021Z,84.88
2018-06-16T21:15:36.278Z,84.37
2018-06-16T21:18:04.617Z,84.31
2018-06-16T21:20:32.884Z,83.69
2018-06-16T21:23:01.333Z,83.43
2018-06-16T21:25:29.597Z,83.43
2018-06-16T21:27:57.897Z,83.24
2018-06-16T21:30:26.203Z,83.69
2018-06-16T21:32:54.493Z,83.50
2018-06-16T21:35:22.793Z,83.67
2018-06-16T21:37:51.193Z,84.42
2018-06-16T21:40:19.494Z,84.89
2018-06-16T21:42:47.793Z,84.14
2018-06-16T21:45:16.080Z,84.34
2018-06-16T21:47:44.374Z,83.80
2018-06-16T21:50:12.641Z,83.54
2018-06-16T21:52:40.957Z,83.18
2018-06-16T21:55:09.213Z,82.86
2018-06-16T21:57:37.564Z,82.94
2018-06-16T22:00:09.857Z,83.84
2018-06-16T22:02:38.228Z,84.26
2018-06-16T22:05:07.126Z,84.71
2018-06-16T22:07:35.410Z,84.45
2018-06-16T22:10:03.813Z,84.34
2018-06-16T22:12:32.090Z,84.92
2018-06-16T22:15:00.397Z,84.25
2018-06-16T22:17:28.663Z,84.56
2018-06-16T22:19:57.091Z,84.91
2018-06-16T22:22:25.438Z,84.56
2018-06-16T22:24:53.750Z,84.19
2018-06-16T22:27:22.041Z,84.20
2018-06-16T22:29:50.372Z,84.13
2018-06-16T22:32:18.641Z,84.26
2018-06-16T22:34:46.972Z,84.04
2018-06-16T22:37:15.277Z,83.65
2018-06-16T22:39:43.573Z,83.94
2018-06-16T22:42:11.853Z,83.08
2018-06-16T22:44:40.256Z,83.36
2018-06-16T22:47:08.569Z,82.39
2018-06-16T22:49:36.880Z,82.08
2018-06-16T22:52:05.139Z,81.98
2018-06-16T22:54:33.430Z,81.58
2018-06-16T22:57:01.808Z,80.62
2018-06-16T22:59:30.122Z,81.00
2018-06-16T23:01:58.404Z,80.78
2018-06-16T23:04:26.721Z,81.68
2018-06-16T23:06:55.014Z,81.84
2018-06-16T23:09:23.285Z,80.97
2018-06-16T23:11:51.590Z,80.98
2018-06-16T23:14:19.876Z,80.64
2018-06-16T23:16:48.187Z,80.81
2018-06-16T23:19:16.449Z,81.20
2018-06-16T23:21:44.785Z,80.97
2018-06-16T23:24:13.041Z,81.33
2018-06-16T23:26:41.331Z,82.43
2018-06-16T23:29:09.591Z,83.32
2018-06-16T23:31:37.876Z,84.83
2018-06-16T23:34:06.384Z,84.30
2018-06-16T23:36:34.735Z,83.45
2018-06-16T23:39:03.181Z,83.27
2018-06-16T23:41:31.489Z,81.42
2018-06-16T23:43:59.857Z,81.74
2018-06-16T23:46:28.125Z,80.46
2018-06-16T23:48:56.484Z,80.16
2018-06-16T23:51:24.765Z,80.01
2018-06-16T23:53:53.089Z,79.69
2018-06-16T23:56:21.384Z,79.31
2018-06-16T23:58:49.746Z,80.43
